Time;durP1;ratioP1;P1;durP2;ratioP2;P2;SDS_P1;SDS_P2;PMS_P1;PMS_P2;Temp;Humidity;BMP_temperature;BMP_pressure;BME280_temperature;BME280_humidity;BME280_pressure;Samples;Min_cycle;Max_cycle;Signal;HPM_P1;HPM_P2
2023/01/08 00:03:15;;;;;;;13.95;12.05;;;;;;;4.08;100.00;99471.03;10542744;28;20048;-79
2023/01/08 00:08:17;;;;;;;14.55;13.38;;;;;;;3.85;100.00;99457.47;10538929;28;20052;-80
2023/01/08 00:13:19;;;;;;;13.85;12.77;;;;;;;4.20;100.00;99456.97;10518416;28;20044;-80
2023/01/08 00:18:21;;;;;;;13.63;12.57;;;;;;;4.00;100.00;99455.53;10505341;28;20131;-79
2023/01/08 00:23:22;;;;;;;13.52;12.43;;;;;;;3.87;100.00;99453.97;10527496;28;20067;-79
2023/01/08 00:28:25;;;;;;;13.10;12.10;;;;;;;3.93;100.00;99455.63;10534634;28;20096;-79
2023/01/08 00:33:26;;;;;;;12.43;11.52;;;;;;;3.96;100.00;99447.78;10533526;28;20048;-80
2023/01/08 00:38:28;;;;;;;13.40;12.32;;;;;;;4.05;100.00;99434.66;10535920;28;20127;-80
2023/01/08 00:43:30;;;;;;;12.20;11.27;;;;;;;3.99;100.00;99429.56;10504058;28;20409;-80
2023/01/08 00:48:38;;;;;;;12.40;11.40;;;;;;;4.01;100.00;99419.97;10499356;28;20066;-79
2023/01/08 00:53:39;;;;;;;13.85;12.82;;;;;;;3.89;100.00;99414.94;10534183;28;20036;-79
2023/01/08 00:58:41;;;;;;;13.30;12.25;;;;;;;3.89;100.00;99409.75;10526375;28;20112;-79
2023/01/08 01:03:43;;;;;;;14.68;13.57;;;;;;;4.12;100.00;99393.78;10536177;28;20044;-79
2023/01/08 01:08:45;;;;;;;13.38;12.38;;;;;;;4.24;100.00;99391.84;10493514;28;20048;-79
2023/01/08 01:13:48;;;;;;;12.55;11.65;;;;;;;4.24;100.00;99376.25;10521929;28;20044;-79
2023/01/08 01:18:51;;;;;;;13.70;12.70;;;;;;;3.98;100.00;99363.66;10525126;28;20043;-81
2023/01/08 01:23:55;;;;;;;14.88;13.65;;;;;;;3.67;100.00;99373.66;10544446;28;20059;-79
2023/01/08 01:28:57;;;;;;;14.15;13.05;;;;;;;3.47;100.00;99389.53;10547420;28;20168;-79
2023/01/08 01:33:59;;;;;;;14.45;13.07;;;;;;;3.47;100.00;99397.34;10531463;28;20045;-80
2023/01/08 01:39:01;;;;;;;14.32;13.23;;;;;;;3.53;100.00;99407.63;10548646;28;20044;-80
2023/01/08 01:44:35;;;;;;;13.77;12.70;;;;;;;3.69;100.00;99395.31;10525583;28;20186;-80
2023/01/08 01:49:40;;;;;;;14.30;13.00;;;;;;;3.60;100.00;99387.63;10503057;28;20047;-79
2023/01/08 01:54:41;;;;;;;14.40;13.32;;;;;;;3.52;100.00;99381.69;10508439;28;20068;-79
2023/01/08 01:59:46;;;;;;;13.63;12.52;;;;;;;3.77;100.00;99384.81;10522180;28;20067;-79
2023/01/08 02:04:48;;;;;;;12.75;11.75;;;;;;;3.74;100.00;99380.50;10506164;28;20036;-79
2023/01/08 02:10:09;;;;;;;13.48;12.27;;;;;;;3.76;100.00;99362.28;10521265;28;20041;-79
2023/01/08 02:15:33;;;;;;;13.43;12.43;;;;;;;3.83;100.00;99353.50;10523561;28;20049;-79
2023/01/08 02:20:40;;;;;;;12.43;11.43;;;;;;;4.01;100.00;99345.41;10510755;28;20053;-81
2023/01/08 02:25:42;;;;;;;13.18;12.18;;;;;;;4.14;100.00;99346.06;10503877;28;20056;-79
2023/01/08 02:30:44;;;;;;;12.98;12.05;;;;;;;4.20;100.00;99326.91;10488096;28;20053;-78
2023/01/08 02:36:09;;;;;;;12.65;11.65;;;;;;;4.12;100.00;99323.56;10521168;28;20087;-80
2023/01/08 02:41:13;;;;;;;13.13;11.80;;;;;;;3.80;100.00;99336.19;10488525;28;20091;-79
2023/01/08 02:46:22;;;;;;;13.63;12.63;;;;;;;3.80;100.00;99335.34;10503020;28;20040;-81
2023/01/08 02:51:27;;;;;;;12.60;11.45;;;;;;;3.84;100.00;99342.22;10487827;28;20051;-79
2023/01/08 02:56:33;;;;;;;13.40;12.35;;;;;;;4.10;100.00;99339.19;10521268;28;20046;-79
2023/01/08 03:01:35;;;;;;;13.27;12.27;;;;;;;4.36;100.00;99340.50;10522813;28;20037;-80
2023/01/08 03:06:37;;;;;;;13.77;12.57;;;;;;;4.24;100.00;99333.75;10503275;28;20044;-80
2023/01/08 03:12:01;;;;;;;13.05;11.93;;;;;;;4.04;100.00;99334.13;10503007;28;20459;-80
2023/01/08 03:17:17;;;;;;;14.27;13.15;;;;;;;4.15;100.00;99333.94;10519373;28;20461;-81
2023/01/08 03:22:21;;;;;;;13.68;12.68;;;;;;;4.21;100.00;99324.28;10518628;28;20091;-80
2023/01/08 03:27:28;;;;;;;13.93;12.77;;;;;;;3.98;100.00;99331.59;10519356;28;20071;-79
2023/01/08 03:32:30;;;;;;;14.95;13.75;;;;;;;4.15;100.00;99320.91;10519518;28;20547;-81
2023/01/08 03:37:36;;;;;;;16.23;15.02;;;;;;;4.08;100.00;99309.78;10501242;28;20048;-80
2023/01/08 03:42:37;;;;;;;17.42;16.05;;;;;;;4.34;100.00;99304.13;10519294;28;20049;-80
2023/01/08 03:47:41;;;;;;;17.02;15.73;;;;;;;4.14;100.00;99298.41;10527700;28;20048;-79
2023/01/08 03:52:43;;;;;;;17.08;15.77;;;;;;;4.30;100.00;99286.84;10526107;28;20041;-81
2023/01/08 03:57:45;;;;;;;17.40;15.82;;;;;;;4.43;100.00;99282.28;10523007;28;20040;-80
2023/01/08 04:02:46;;;;;;;16.83;15.63;;;;;;;4.51;100.00;99278.59;10503013;28;20055;-79
2023/01/08 04:07:48;;;;;;;16.52;15.23;;;;;;;4.60;100.00;99258.50;10532677;22;20040;-82
2023/01/08 04:12:50;;;;;;;16.63;15.35;;;;;;;4.53;100.00;99262.97;10570401;28;20124;-82
2023/01/08 04:17:52;;;;;;;18.67;17.17;;;;;;;4.78;100.00;99255.53;10552563;28;20115;-82
2023/01/08 04:22:54;;;;;;;17.60;16.30;;;;;;;4.86;100.00;99250.16;10588696;28;20036;-83
2023/01/08 04:27:56;;;;;;;18.77;17.27;;;;;;;4.86;100.00;99256.22;10569023;28;20120;-82
2023/01/08 04:32:57;;;;;;;18.58;17.17;;;;;;;4.97;100.00;99269.03;10588000;28;20032;-82
2023/01/08 04:37:59;;;;;;;18.55;17.25;;;;;;;4.88;100.00;99267.47;10588583;28;20046;-81
2023/01/08 04:43:00;;;;;;;18.45;17.05;;;;;;;4.87;100.00;99267.50;10548101;28;20043;-81
2023/01/08 04:48:02;;;;;;;17.10;15.80;;;;;;;4.75;100.00;99269.47;10553920;28;20044;-82
2023/01/08 04:53:04;;;;;;;18.77;17.27;;;;;;;4.80;100.00;99262.41;10541687;28;20104;-82
2023/01/08 04:58:06;;;;;;;17.98;16.58;;;;;;;4.80;100.00;99253.75;10572526;28;20050;-82
2023/01/08 05:03:07;;;;;;;17.17;15.88;;;;;;;4.76;100.00;99259.91;10546000;28;20135;-83
2023/01/08 05:08:09;;;;;;;16.50;15.30;;;;;;;5.00;100.00;99263.72;10569132;28;20044;-82
2023/01/08 05:13:11;;;;;;;17.15;15.90;;;;;;;4.77;100.00;99248.59;10566617;28;20047;-83
2023/01/08 05:18:12;;;;;;;17.75;16.45;;;;;;;4.84;100.00;99244.13;10565001;28;20493;-83
2023/01/08 05:23:14;;;;;;;17.77;16.17;;;;;;;4.67;100.00;99245.34;10546334;28;20052;-83
2023/01/08 05:28:16;;;;;;;18.08;16.77;;;;;;;4.75;100.00;99246.03;10563955;28;20109;-83
2023/01/08 05:33:18;;;;;;;17.00;15.82;;;;;;;4.64;100.00;99250.59;10548955;28;20371;-83
2023/01/08 05:38:20;;;;;;;17.55;16.25;;;;;;;4.66;100.00;99235.81;10547086;28;20040;-81
2023/01/08 05:43:21;;;;;;;18.65;17.25;;;;;;;4.78;100.00;99232.97;10564511;28;20044;-83
2023/01/08 05:48:23;;;;;;;18.38;16.98;;;;;;;4.77;100.00;99226.03;10564872;28;20048;-82
2023/01/08 05:53:25;;;;;;;18.85;17.30;;;;;;;4.65;100.00;99212.41;10567180;28;20044;-83
2023/01/08 05:58:27;;;;;;;19.48;17.98;;;;;;;4.65;100.00;99215.00;10548201;28;20105;-84
2023/01/08 06:03:29;;;;;;;19.17;17.58;;;;;;;4.47;100.00;99218.84;10546230;28;20040;-82
2023/01/08 06:08:31;;;;;;;18.20;16.90;;;;;;;4.55;100.00;99199.59;10564845;28;20047;-83
2023/01/08 06:13:34;;;;;;;19.92;18.40;;;;;;;4.69;100.00;99201.03;10546773;28;20044;-82
2023/01/08 06:18:36;;;;;;;20.05;18.40;;;;;;;4.60;100.00;99217.72;10565772;28;20422;-81
2023/01/08 06:23:38;;;;;;;20.55;18.90;;;;;;;4.63;100.00;99206.38;10569927;28;20040;-83
2023/01/08 06:28:39;;;;;;;19.75;18.33;;;;;;;4.91;100.00;99206.66;10552391;28;20048;-82
2023/01/08 06:33:41;;;;;;;20.50;18.83;;;;;;;4.87;100.00;99213.69;10550247;28;20413;-83
2023/01/08 06:38:43;;;;;;;22.10;20.15;;;;;;;4.62;100.00;99212.50;10567387;28;20066;-81
2023/01/08 06:43:46;;;;;;;21.77;20.00;;;;;;;4.76;100.00;99218.25;10567994;28;20040;-82
2023/01/08 06:48:47;;;;;;;22.48;20.50;;;;;;;4.71;100.00;99233.97;10548377;28;20071;-83
2023/01/08 06:53:50;;;;;;;23.15;21.17;;;;;;;4.79;100.00;99233.81;10556846;28;20131;-82
2023/01/08 06:58:52;;;;;;;22.45;20.65;;;;;;;4.96;100.00;99231.72;10566649;28;20097;-82
2023/01/08 07:03:54;;;;;;;21.30;19.67;;;;;;;4.89;100.00;99230.13;10566062;28;20036;-81
2023/01/08 07:08:56;;;;;;;22.08;20.23;;;;;;;4.90;100.00;99233.59;10565380;28;20067;-80
2023/01/08 07:13:58;;;;;;;22.25;20.50;;;;;;;5.03;100.00;99248.91;10565532;28;20044;-82
2023/01/08 07:18:59;;;;;;;21.88;19.83;;;;;;;4.94;100.00;99256.91;10525606;28;20517;-81
2023/01/08 07:24:01;;;;;;;20.83;19.08;;;;;;;5.02;100.00;99248.94;10544533;28;20101;-82
2023/01/08 07:29:03;;;;;;;21.30;19.35;;;;;;;4.98;100.00;99249.91;10542521;28;20051;-81
2023/01/08 07:34:05;;;;;;;22.35;20.35;;;;;;;5.05;100.00;99243.69;10562575;28;20489;-82
2023/01/08 07:39:06;;;;;;;21.95;20.15;;;;;;;5.05;100.00;99249.75;10527858;28;20408;-81
2023/01/08 07:44:09;;;;;;;20.95;19.35;;;;;;;5.19;100.00;99235.56;10528686;28;20044;-83
2023/01/08 07:49:11;;;;;;;20.48;18.77;;;;;;;5.21;100.00;99224.19;10544107;28;20044;-83
2023/01/08 07:54:13;;;;;;;21.10;19.23;;;;;;;4.97;100.00;99222.16;10562156;28;20524;-84
2023/01/08 07:59:14;;;;;;;18.55;17.15;;;;;;;5.28;100.00;99222.31;10561877;28;20055;-83
2023/01/08 08:04:16;;;;;;;19.38;17.88;;;;;;;5.22;100.00;99214.63;10565182;28;20044;-84
2023/01/08 08:09:18;;;;;;;20.85;19.15;;;;;;;5.30;100.00;99228.34;10553169;28;20075;-82
2023/01/08 08:14:20;;;;;;;18.80;17.38;;;;;;;5.31;99.80;99217.91;10568731;28;20070;-83
2023/01/08 08:19:21;;;;;;;18.27;16.83;;;;;;;5.26;100.00;99213.66;10581292;28;20068;-82
2023/01/08 08:24:23;;;;;;;18.95;17.40;;;;;;;5.35;99.72;99209.97;10535115;28;20102;-83
2023/01/08 08:29:25;;;;;;;19.42;17.83;;;;;;;5.27;100.00;99215.41;10564146;28;20047;-84
2023/01/08 08:34:26;;;;;;;17.77;16.38;;;;;;;5.47;99.58;99210.56;10564541;28;20098;-83
2023/01/08 08:39:28;;;;;;;19.30;17.70;;;;;;;5.51;99.42;99199.16;10560321;28;20405;-82
2023/01/08 08:44:30;;;;;;;18.05;16.55;;;;;;;5.38;100.00;99176.03;10562945;28;20044;-82
2023/01/08 08:49:32;;;;;;;17.58;16.17;;;;;;;5.67;98.61;99183.16;10565738;28;20048;-83
2023/01/08 08:54:34;;;;;;;16.60;15.10;;;;;;;5.83;96.76;99185.28;10567603;28;20151;-84
2023/01/08 08:59:36;;;;;;;16.33;14.98;;;;;;;5.86;96.27;99178.31;10551744;28;20139;-84
2023/01/08 09:04:37;;;;;;;15.73;14.52;;;;;;;5.93;95.96;99174.66;10552986;28;20067;-84
2023/01/08 09:09:39;;;;;;;15.65;14.45;;;;;;;5.80;96.74;99169.75;10556441;28;20120;-84
2023/01/08 09:14:41;;;;;;;15.85;14.63;;;;;;;5.86;97.65;99168.72;10558925;28;20052;-84
2023/01/08 09:19:43;;;;;;;15.18;13.98;;;;;;;5.80;97.18;99161.94;10561476;28;20046;-84
2023/01/08 09:24:45;;;;;;;14.55;13.35;;;;;;;5.93;96.62;99149.44;10580621;28;20182;-84
2023/01/08 09:29:46;;;;;;;14.55;13.45;;;;;;;6.11;94.69;99140.25;10563944;28;20043;-84
2023/01/08 09:34:48;;;;;;;13.90;12.73;;;;;;;6.19;93.94;99137.41;10583289;28;20072;-84
2023/01/08 09:39:50;;;;;;;13.70;12.63;;;;;;;6.26;93.71;99138.97;10556860;28;20398;-84
2023/01/08 09:45:04;;;;;;;15.25;13.95;;;;;;;6.00;96.20;99137.09;10581216;28;20116;-84
2023/01/08 09:50:12;;;;;;;14.35;13.05;;;;;;;6.08;95.97;99140.34;10583649;28;20036;-84
2023/01/08 09:55:15;;;;;;;13.68;12.63;;;;;;;6.24;94.63;99132.91;10570112;28;20487;-83
2023/01/08 10:00:23;;;;;;;13.75;12.65;;;;;;;6.31;94.83;99127.50;10542327;28;20044;-85
2023/01/08 10:05:27;;;;;;;12.93;11.88;;;;;;;6.63;91.31;99136.13;10563978;28;20089;-83
2023/01/08 10:10:30;;;;;;;13.05;11.95;;;;;;;6.76;91.21;99136.59;10573716;28;20089;-85
2023/01/08 10:15:32;;;;;;;13.18;12.18;;;;;;;6.60;92.51;99124.91;10537702;28;20132;-84
2023/01/08 10:20:34;;;;;;;13.20;12.10;;;;;;;6.74;91.12;99126.22;10553996;28;20051;-84
2023/01/08 10:26:00;;;;;;;13.27;11.90;;;;;;;6.88;90.41;99117.94;10535353;28;20119;-83
2023/01/08 10:31:09;;;;;;;12.90;11.98;;;;;;;6.83;90.96;99112.88;10550740;28;20060;-85
2023/01/08 10:36:15;;;;;;;12.20;11.30;;;;;;;6.70;90.97;99106.31;10551876;28;20052;-80
2023/01/08 10:41:18;;;;;;;12.05;11.05;;;;;;;6.82;90.07;99102.47;10576881;28;20076;-80
2023/01/08 10:46:34;;;;;;;12.05;10.80;;;;;;;6.89;89.47;99095.28;10578785;28;20036;-83
2023/01/08 10:51:49;;;;;;;12.32;11.32;;;;;;;6.89;88.01;99083.06;10568222;28;20106;-83
2023/01/08 10:56:50;;;;;;;11.30;10.27;;;;;;;6.76;88.98;99069.56;10566955;28;20059;-84
2023/01/08 11:01:57;;;;;;;11.90;10.90;;;;;;;6.74;89.84;99066.16;10570522;28;20072;-81
2023/01/08 11:07:04;;;;;;;11.10;10.20;;;;;;;6.69;90.61;99061.97;10562457;28;20470;-82
2023/01/08 11:12:36;;;;;;;11.32;10.32;;;;;;;6.85;88.99;99055.34;10551880;28;20040;-83
2023/01/08 11:17:37;;;;;;;12.18;11.27;;;;;;;6.88;90.55;99073.53;10526798;28;20159;-83
2023/01/08 11:22:39;;;;;;;11.68;10.55;;;;;;;7.06;88.08;99062.50;10544555;28;20044;-81
2023/01/08 11:27:43;;;;;;;10.55;9.75;;;;;;;7.22;86.65;99072.44;10558890;28;20044;-80
2023/01/08 11:32:56;;;;;;;10.32;9.63;;;;;;;7.00;88.24;99073.16;10557339;28;20044;-80
2023/01/08 11:38:02;;;;;;;11.25;10.25;;;;;;;6.92;90.18;99067.31;10542273;28;20101;-81
2023/01/08 11:43:31;;;;;;;11.80;10.90;;;;;;;6.85;89.22;99050.13;10558045;28;20032;-80
2023/01/08 11:48:32;;;;;;;11.60;10.73;;;;;;;7.19;87.13;99044.66;10541066;28;20047;-82
2023/01/08 11:53:49;;;;;;;11.60;10.70;;;;;;;7.29;84.06;99040.78;10521328;28;20044;-80
2023/01/08 11:59:10;;;;;;;11.25;10.35;;;;;;;7.04;86.11;99021.66;10526673;28;20089;-80
2023/01/08 12:04:39;;;;;;;13.52;12.52;;;;;;;6.69;89.23;99013.22;10583597;28;20531;-81
2023/01/08 12:09:52;;;;;;;12.00;11.00;;;;;;;7.16;85.34;99009.91;10562789;28;20043;-83
2023/01/08 12:15:15;;;;;;;10.65;9.80;;;;;;;6.96;88.06;99006.22;10527978;28;20074;-84
2023/01/08 12:20:31;;;;;;;11.45;10.55;;;;;;;7.19;85.73;99010.66;10562053;28;20042;-83
2023/01/08 12:25:39;;;;;;;10.80;9.98;;;;;;;7.38;84.05;98995.19;10548132;28;20051;-84
2023/01/08 12:30:59;;;;;;;11.38;10.50;;;;;;;7.22;85.77;98987.03;10552158;28;20043;-84
2023/01/08 12:36:07;;;;;;;11.65;10.50;;;;;;;7.41;84.24;98994.22;10565740;28;20112;-84
2023/01/08 12:41:18;;;;;;;11.32;10.43;;;;;;;7.47;83.60;98997.47;10588220;28;20051;-84
2023/01/08 12:46:23;;;;;;;11.55;10.60;;;;;;;7.26;85.65;98993.00;10588423;28;20078;-84
2023/01/08 12:51:38;;;;;;;10.93;9.93;;;;;;;7.39;84.66;98998.66;10587073;28;20103;-85
2023/01/08 12:56:51;;;;;;;10.95;10.05;;;;;;;7.16;85.58;98974.16;10579494;28;20498;-84
2023/01/08 13:02:14;;;;;;;11.93;10.40;;;;;;;7.50;83.99;98975.59;10539493;28;20055;-83
2023/01/08 13:07:27;;;;;;;12.75;11.75;;;;;;;7.58;82.89;98976.19;10530392;28;20052;-85
2023/01/08 13:12:36;;;;;;;13.40;12.25;;;;;;;7.44;84.17;98975.84;10563014;28;20044;-83
2023/01/08 13:17:38;;;;;;;10.90;10.00;;;;;;;7.42;83.76;98969.78;10559988;28;20131;-85
2023/01/08 13:22:40;;;;;;;9.70;8.90;;;;;;;7.32;85.19;98956.19;10558604;28;20524;-84
2023/01/08 13:27:44;;;;;;;9.02;8.23;;;;;;;7.70;81.31;98956.53;10570429;28;20024;-83
2023/01/08 13:32:47;;;;;;;22.73;20.05;;;;;;;7.63;81.43;98958.56;10579194;28;20052;-83
2023/01/08 13:38:08;;;;;;;21.48;19.58;;;;;;;7.77;79.46;98958.88;10596952;28;20063;-83
2023/01/08 13:43:14;;;;;;;12.20;11.13;;;;;;;7.41;81.93;98955.03;10597145;28;20087;-84
2023/01/08 13:48:22;;;;;;;12.35;11.20;;;;;;;7.41;82.03;98953.25;10561823;28;20054;-83
2023/01/08 13:53:24;;;;;;;11.75;10.75;;;;;;;7.42;82.44;98943.66;10596738;28;20027;-84
2023/01/08 13:58:30;;;;;;;10.82;9.77;;;;;;;7.28;84.55;98938.91;10555607;28;20067;-84
2023/01/08 14:03:36;;;;;;;10.32;9.43;;;;;;;7.28;86.10;98934.53;10549283;28;20135;-84
2023/01/08 14:08:59;;;;;;;12.10;11.10;;;;;;;7.16;88.87;98928.88;10539913;28;20052;-84
2023/01/08 14:14:00;;;;;;;15.00;12.23;;;;;;;7.09;90.80;98925.66;10494330;28;20037;-84
2023/01/08 14:19:04;;;;;;;13.50;12.30;;;;;;;7.05;92.56;98918.84;10492829;28;20448;-85
2023/01/08 14:24:06;;;;;;;12.10;11.00;;;;;;;6.96;92.54;98934.84;10508419;28;20055;-85
2023/01/08 14:29:14;;;;;;;15.27;14.13;;;;;;;6.70;95.54;98930.50;10523201;28;20044;-85
2023/01/08 14:34:18;;;;;;;12.10;11.10;;;;;;;6.41;99.83;98940.13;10489947;28;20150;-84
2023/01/08 14:39:31;;;;;;;13.70;12.57;;;;;;;6.33;100.00;98931.72;10527160;28;20049;-83
2023/01/08 14:44:33;;;;;;;13.63;12.15;;;;;;;6.32;100.00;98927.38;10547818;28;20023;-83
2023/01/08 14:49:43;;;;;;;11.70;10.70;;;;;;;6.36;100.00;98925.53;10533453;28;20056;-83
2023/01/08 14:54:52;;;;;;;14.35;13.07;;;;;;;6.21;100.00;98921.66;10535265;28;20044;-84
2023/01/08 15:00:00;;;;;;;15.45;14.05;;;;;;;6.31;100.00;98918.69;10519198;28;20040;-84
2023/01/08 15:05:19;;;;;;;15.82;14.43;;;;;;;6.42;99.31;98910.53;10518743;28;20074;-85
2023/01/08 15:10:37;;;;;;;14.77;13.50;;;;;;;6.33;100.00;98926.50;10535742;28;20052;-84
2023/01/08 15:15:53;;;;;;;14.68;13.38;;;;;;;6.19;100.00;98926.91;10531910;28;20037;-86
2023/01/08 15:20:55;;;;;;;16.23;14.63;;;;;;;6.12;100.00;98924.56;10511803;28;20123;-86
2023/01/08 15:25:57;;;;;;;14.13;12.93;;;;;;;6.25;100.00;98931.09;10521893;28;20127;-85
2023/01/08 15:30:59;;;;;;;14.88;13.50;;;;;;;6.05;100.00;98935.16;10517548;28;20040;-86
2023/01/08 15:36:01;;;;;;;13.77;12.57;;;;;;;6.18;100.00;98943.47;10513874;28;20067;-85
2023/01/08 15:41:03;;;;;;;12.60;11.57;;;;;;;6.32;100.00;98954.31;10510966;28;20076;-85
2023/01/08 15:46:10;;;;;;;14.10;12.90;;;;;;;6.21;100.00;98943.38;10515803;28;20072;-86
2023/01/08 15:51:11;;;;;;;14.75;13.45;;;;;;;6.00;99.95;98946.66;10512116;28;20032;-84
2023/01/08 15:56:13;;;;;;;14.60;13.40;;;;;;;6.06;97.37;98942.13;10498485;28;20124;-84
2023/01/08 16:01:16;;;;;;;14.98;13.68;;;;;;;6.03;96.62;98941.34;10514671;28;20054;-85
2023/01/08 16:06:44;;;;;;;13.98;12.70;;;;;;;6.06;95.64;98946.44;10532206;28;20044;-85
2023/01/08 16:11:49;;;;;;;15.13;13.82;;;;;;;5.89;97.89;98933.03;10420652;28;20490;-76
2023/01/08 16:16:51;;;;;;;10.65;9.82;;;;;;;5.85;96.26;98916.66;10420534;28;20121;-74
2023/01/08 16:21:53;;;;;;;10.80;9.52;;;;;;;6.01;93.65;98912.69;10418094;28;20041;-75
2023/01/08 16:26:55;;;;;;;11.45;10.50;;;;;;;5.97;94.61;98912.81;10417822;28;20406;-77
2023/01/08 16:31:57;;;;;;;11.00;10.00;;;;;;;5.83;94.19;98923.66;10417409;28;20443;-75
2023/01/08 16:37:01;;;;;;;13.05;12.05;;;;;;;5.89;94.45;98928.69;10416548;28;20053;-77
2023/01/08 16:42:07;;;;;;;11.73;10.82;;;;;;;5.97;92.78;98937.16;10415020;28;20049;-75
2023/01/08 16:47:10;;;;;;;13.63;12.43;;;;;;;6.03;92.63;98926.56;10416997;28;20045;-75
2023/01/08 16:52:12;;;;;;;12.45;11.52;;;;;;;5.88;92.74;98921.75;10400130;28;20045;-75
2023/01/08 16:57:14;;;;;;;13.07;12.07;;;;;;;5.64;94.24;98910.31;10417678;28;20053;-76
2023/01/08 17:02:16;;;;;;;12.00;11.10;;;;;;;5.68;94.22;98906.72;10418242;28;20037;-75
2023/01/08 17:07:17;;;;;;;13.15;12.25;;;;;;;5.73;94.28;98928.28;10425897;28;20049;-75
2023/01/08 17:12:21;;;;;;;13.27;12.27;;;;;;;5.45;96.79;98919.59;10424864;28;20044;-77
2023/01/08 17:17:23;;;;;;;13.88;12.77;;;;;;;5.48;95.97;98922.94;10405412;28;20140;-75
2023/01/08 17:22:25;;;;;;;13.95;12.68;;;;;;;5.55;95.49;98913.19;10424646;28;20045;-76
2023/01/08 17:27:27;;;;;;;12.90;12.00;;;;;;;5.69;94.38;98902.34;10424753;28;20518;-76
2023/01/08 17:32:29;;;;;;;13.02;12.02;;;;;;;5.71;94.76;98901.44;10423607;28;20510;-76
2023/01/08 17:37:32;;;;;;;13.32;11.95;;;;;;;5.99;93.19;98892.78;10423947;28;20124;-75
2023/01/08 17:42:35;;;;;;;12.73;11.82;;;;;;;5.67;94.64;98875.50;10405484;28;20041;-77
2023/01/08 17:47:37;;;;;;;14.73;13.63;;;;;;;5.71;94.68;98862.31;10408774;28;20047;-76
2023/01/08 17:52:39;;;;;;;12.93;12.02;;;;;;;5.96;92.13;98845.91;10425537;28;20049;-76
2023/01/08 17:57:42;;;;;;;13.38;12.38;;;;;;;5.72;93.47;98847.53;10419212;28;20088;-77
2023/01/08 18:02:46;;;;;;;13.90;12.90;;;;;;;5.70;93.70;98844.09;10413900;28;20041;-75
2023/01/08 18:07:48;;;;;;;14.93;13.82;;;;;;;5.66;94.35;98830.28;10436323;28;20434;-76
2023/01/08 18:12:50;;;;;;;15.88;14.60;;;;;;;5.54;94.63;98823.72;10422591;28;20121;-76
2023/01/08 18:17:51;;;;;;;17.50;16.20;;;;;;;5.61;95.33;98813.09;10422647;28;20048;-76
2023/01/08 18:22:55;;;;;;;17.52;16.15;;;;;;;5.40;96.30;98809.38;10425726;28;20489;-77
2023/01/08 18:27:57;;;;;;;17.02;15.63;;;;;;;5.54;96.09;98799.41;10424577;28;20049;-77
2023/01/08 18:32:59;;;;;;;19.35;17.95;;;;;;;5.42;97.32;98811.06;10423952;28;20041;-77
2023/01/08 18:38:01;;;;;;;20.38;18.70;;;;;;;5.38;97.54;98812.06;10422315;28;20092;-75
2023/01/08 18:43:03;;;;;;;20.58;19.08;;;;;;;5.22;98.53;98819.50;10423237;28;20452;-76
2023/01/08 18:48:07;;;;;;;22.83;21.02;;;;;;;5.22;99.53;98816.88;10422588;28;20068;-76
2023/01/08 18:53:10;;;;;;;23.88;21.98;;;;;;;5.08;100.00;98808.59;10405664;28;20041;-75
2023/01/08 18:58:12;;;;;;;23.50;21.70;;;;;;;5.01;100.00;98799.28;10423427;28;20049;-77
2023/01/08 19:03:13;;;;;;;25.60;23.13;;;;;;;4.80;100.00;98782.50;10420804;28;20057;-76
2023/01/08 19:08:15;;;;;;;26.40;24.13;;;;;;;4.74;100.00;98780.94;10405120;28;20042;-76
2023/01/08 19:13:18;;;;;;;26.98;24.35;;;;;;;4.70;100.00;98791.47;10404242;28;20056;-76
2023/01/08 19:18:23;;;;;;;26.05;23.92;;;;;;;4.68;100.00;98790.66;10404842;28;20053;-75
2023/01/08 19:23:27;;;;;;;27.02;24.67;;;;;;;4.84;100.00;98788.50;10421402;28;20041;-76
2023/01/08 19:28:29;;;;;;;26.10;23.70;;;;;;;4.65;100.00;98783.81;10421204;28;20073;-76
2023/01/08 19:33:31;;;;;;;27.20;24.95;;;;;;;4.71;100.00;98787.97;10405384;28;20420;-76
2023/01/08 19:38:34;;;;;;;26.30;24.05;;;;;;;4.57;100.00;98782.31;10403637;28;20576;-74
2023/01/08 19:43:42;;;;;;;26.52;24.00;;;;;;;4.67;100.00;98789.81;10421184;28;20057;-76
2023/01/08 19:48:44;;;;;;;25.50;23.23;;;;;;;4.75;100.00;98779.19;10403260;28;20111;-76
2023/01/08 19:53:46;;;;;;;26.70;24.50;;;;;;;4.65;100.00;98778.59;10420790;28;20129;-74
2023/01/08 19:58:52;;;;;;;24.73;22.38;;;;;;;4.46;100.00;98766.97;10402702;28;20056;-76
2023/01/08 20:03:55;;;;;;;23.77;21.73;;;;;;;4.82;100.00;98759.88;10402658;28;20041;-74
2023/01/08 20:08:58;;;;;;;23.00;21.20;;;;;;;4.93;100.00;98744.81;10402807;28;20491;-74
2023/01/08 20:14:04;;;;;;;22.50;20.60;;;;;;;4.95;100.00;98744.75;10403406;28;20045;-76
2023/01/08 20:19:05;;;;;;;23.90;22.08;;;;;;;4.83;100.00;98735.56;10419795;28;20038;-76
2023/01/08 20:24:13;;;;;;;23.35;21.42;;;;;;;4.84;100.00;98728.59;10420384;28;20065;-75
2023/01/08 20:29:15;;;;;;;24.17;22.23;;;;;;;4.93;100.00;98723.97;10402466;28;20045;-74
2023/01/08 20:34:17;;;;;;;24.00;22.30;;;;;;;4.89;100.00;98705.88;10418452;28;20563;-75
2023/01/08 20:39:19;;;;;;;23.25;21.30;;;;;;;4.78;100.00;98714.00;10400584;28;20038;-75
2023/01/08 20:44:27;;;;;;;22.48;20.70;;;;;;;4.86;100.00;98698.16;10401194;28;20060;-75
2023/01/08 20:49:30;;;;;;;21.52;20.02;;;;;;;4.77;100.00;98691.47;10400864;28;20049;-75
2023/01/08 20:54:32;;;;;;;23.80;21.77;;;;;;;4.78;100.00;98696.66;10416910;28;20053;-75
2023/01/08 20:59:34;;;;;;;22.38;20.67;;;;;;;4.58;100.00;98692.91;10401288;28;20072;-74
2023/01/08 21:04:40;;;;;;;24.10;22.00;;;;;;;4.46;100.00;98709.72;10400476;28;20530;-76
2023/01/08 21:09:43;;;;;;;24.92;22.75;;;;;;;4.37;100.00;98699.56;10403317;28;20041;-75
2023/01/08 21:14:44;;;;;;;25.35;22.83;;;;;;;4.46;100.00;98688.91;10400773;28;20054;-76
2023/01/08 21:19:46;;;;;;;23.95;22.15;;;;;;;4.23;100.00;98693.00;10418702;28;20407;-76
2023/01/08 21:24:48;;;;;;;25.98;23.27;;;;;;;4.49;100.00;98688.84;10401175;28;20037;-76
2023/01/08 21:29:53;;;;;;;25.95;23.92;;;;;;;4.50;100.00;98680.97;10403221;28;20041;-75
2023/01/08 21:34:55;;;;;;;25.42;23.33;;;;;;;4.44;100.00;98662.94;10384027;28;20100;-74
2023/01/08 21:39:57;;;;;;;26.38;24.38;;;;;;;4.07;100.00;98657.06;10398774;28;20050;-75
2023/01/08 21:50:19;;;;;;;24.40;22.20;;;;;;;4.17;100.00;98616.91;10421457;28;20546;-74
2023/01/08 21:55:21;;;;;;;24.77;22.40;;;;;;;4.29;100.00;98611.34;10406062;28;20042;-75
2023/01/08 22:00:23;;;;;;;25.17;22.85;;;;;;;4.45;100.00;98610.00;10405426;28;20053;-76
2023/01/08 22:05:26;;;;;;;23.88;21.98;;;;;;;4.47;100.00;98613.44;10405931;28;20073;-76
2023/01/08 22:10:28;;;;;;;23.75;21.52;;;;;;;4.72;100.00;98603.09;10489894;22;20055;-77
2023/01/08 22:15:30;;;;;;;21.95;20.15;;;;;;;4.69;100.00;98597.13;10490121;28;20040;-76
2023/01/08 22:20:32;;;;;;;22.60;20.75;;;;;;;4.82;100.00;98595.84;10491446;28;20068;-76
2023/01/08 22:25:38;;;;;;;23.02;21.02;;;;;;;4.55;100.00;98589.75;10489386;28;20401;-76
2023/01/08 22:30:40;;;;;;;24.60;22.60;;;;;;;4.65;100.00;98579.91;10505822;28;20041;-75
2023/01/08 22:35:41;;;;;;;24.30;22.25;;;;;;;4.90;100.00;98583.44;10504555;28;20448;-75
2023/01/08 22:40:43;;;;;;;21.23;19.60;;;;;;;4.99;100.00;98575.34;10508654;28;20056;-75
2023/01/08 22:45:56;;;;;;;23.95;21.50;;;;;;;4.94;100.00;98559.00;10504469;28;20047;-76
2023/01/08 22:51:01;;;;;;;22.65;20.75;;;;;;;4.80;100.00;98551.66;10504744;28;20037;-76
2023/01/08 22:56:11;;;;;;;22.52;20.73;;;;;;;4.87;100.00;98548.84;10485591;28;20048;-75
2023/01/08 23:01:21;;;;;;;21.10;19.40;;;;;;;4.84;100.00;98549.81;10486298;28;20509;-74
2023/01/08 23:06:25;;;;;;;22.35;20.33;;;;;;;4.76;100.00;98547.44;10501791;28;20508;-74
2023/01/08 23:11:27;;;;;;;21.38;19.60;;;;;;;4.83;100.00;98531.66;10501544;28;20041;-75
2023/01/08 23:16:29;;;;;;;21.88;20.17;;;;;;;4.61;100.00;98528.88;10502320;28;20406;-75